Time;durP1;ratioP1;P1;durP2;ratioP2;P2;SDS_P1;SDS_P2;PMS_P1;PMS_P2;Temp;Humidity;BMP_temperature;BMP_pressure;BME280_temperature;BME280_humidity;BME280_pressure;Samples;Min_cycle;Max_cycle;Signal;HPM_P1;HPM_P2
2024/03/09 00:00:39;;;;;;;28.95;11.70;;;6.40;99.90;;;;;;5045657;28;20374;-54
2024/03/09 00:03:09;;;;;;;27.95;12.65;;;6.40;99.90;;;;;;5053163;28;20401;-54
2024/03/09 00:05:36;;;;;;;29.08;12.00;;;6.40;99.90;;;;;;5054094;28;20108;-53
2024/03/09 00:08:03;;;;;;;29.73;12.75;;;6.40;99.90;;;;;;5054006;28;20035;-52
2024/03/09 00:10:29;;;;;;;34.58;12.77;;;6.40;99.90;;;;;;5042661;28;20351;-56
2024/03/09 00:12:57;;;;;;;33.30;12.80;;;6.40;99.90;;;;;;5034211;28;20469;-54
2024/03/09 00:15:24;;;;;;;32.05;14.48;;;6.40;99.90;;;;;;5033852;28;20104;-50
2024/03/09 00:17:54;;;;;;;31.90;12.80;;;6.40;99.90;;;;;;5034726;28;20558;-53
2024/03/09 00:20:25;;;;;;;29.13;12.30;;;6.40;99.90;;;;;;5038253;28;20025;-54
2024/03/09 00:22:58;;;;;;;29.40;13.05;;;6.40;99.90;;;;;;5053740;28;20059;-54
2024/03/09 00:25:24;;;;;;;32.25;12.40;;;6.40;99.90;;;;;;5053603;28;20393;-52
2024/03/09 00:27:52;;;;;;;31.33;13.20;;;6.40;99.90;;;;;;5053531;28;20027;-55
2024/03/09 00:30:19;;;;;;;31.38;11.98;;;6.40;99.90;;;;;;5053809;28;20500;-54
2024/03/09 00:32:54;;;;;;;29.52;13.10;;;6.40;99.90;;;;;;5053570;28;20120;-42
2024/03/09 00:35:24;;;;;;;33.95;12.20;;;6.40;99.90;;;;;;5052937;28;20045;-41
2024/03/09 00:37:50;;;;;;;30.30;12.32;;;6.40;99.90;;;;;;5052655;28;20486;-42
2024/03/09 00:40:17;;;;;;;31.70;13.73;;;6.30;99.90;;;;;;5053287;28;20040;-41
2024/03/09 00:42:45;;;;;;;33.03;14.23;;;6.30;99.90;;;;;;5053469;28;20025;-40
2024/03/09 00:45:13;;;;;;;32.58;13.02;;;6.30;99.90;;;;;;5053554;28;20025;-41
2024/03/09 00:47:40;;;;;;;32.60;13.68;;;6.30;99.90;;;;;;5053183;28;20025;-40
2024/03/09 00:50:07;;;;;;;33.53;12.43;;;6.30;99.90;;;;;;5040743;28;20040;-42
2024/03/09 00:52:34;;;;;;;33.42;13.23;;;6.20;99.90;;;;;;5033182;28;20494;-42
2024/03/09 00:55:00;;;;;;;26.17;11.77;;;6.20;99.90;;;;;;5033681;28;20108;-40
2024/03/09 00:57:26;;;;;;;40.22;14.23;;;6.20;99.90;;;;;;5033066;28;20060;-41
2024/03/09 00:59:54;;;;;;;38.30;13.13;;;6.20;99.90;;;;;;5033114;28;20418;-42
2024/03/09 01:02:30;;;;;;;28.25;12.55;;;6.10;99.90;;;;;;5032514;28;20025;-41
2024/03/09 01:04:56;;;;;;;36.90;11.88;;;6.10;99.90;;;;;;5036238;28;20474;-41
2024/03/09 01:07:23;;;;;;;32.35;12.88;;;6.10;99.90;;;;;;5033366;28;20162;-42
2024/03/09 01:09:49;;;;;;;36.97;13.82;;;6.10;99.90;;;;;;5038917;28;20039;-42
2024/03/09 01:12:17;;;;;;;31.80;12.15;;;6.00;99.90;;;;;;5039147;28;20021;-45
2024/03/09 01:14:49;;;;;;;30.25;13.38;;;6.00;99.90;;;;;;5033129;28;20572;-44
2024/03/09 01:17:21;;;;;;;32.17;13.65;;;6.00;99.90;;;;;;5033004;28;20474;-41
2024/03/09 01:19:52;;;;;;;30.20;12.65;;;6.00;99.90;;;;;;5032668;28;20032;-42
2024/03/09 01:22:22;;;;;;;32.92;13.20;;;6.00;99.90;;;;;;5032663;28;20030;-41
2024/03/09 01:24:49;;;;;;;34.13;13.05;;;5.90;99.90;;;;;;5033139;28;20036;-41
2024/03/09 01:27:16;;;;;;;30.87;12.80;;;5.90;99.90;;;;;;5032637;28;20558;-43
2024/03/09 01:29:47;;;;;;;31.77;13.43;;;5.90;99.90;;;;;;5033101;28;20269;-40
2024/03/09 01:32:15;;;;;;;32.72;13.63;;;5.90;99.90;;;;;;5036700;28;20469;-42
2024/03/09 01:34:41;;;;;;;29.35;13.57;;;5.90;99.90;;;;;;5052327;28;20130;-44
2024/03/09 01:37:10;;;;;;;34.78;13.68;;;5.90;99.90;;;;;;5052371;28;20433;-44
2024/03/09 01:39:39;;;;;;;36.42;14.80;;;5.80;99.90;;;;;;5052231;28;20103;-49
2024/03/09 01:42:08;;;;;;;31.10;13.25;;;5.80;99.90;;;;;;5043507;28;20021;-55
2024/03/09 01:44:34;;;;;;;33.35;14.07;;;5.80;99.90;;;;;;5036178;28;20131;-54
2024/03/09 01:47:01;;;;;;;32.85;13.02;;;5.80;99.90;;;;;;5033472;28;20493;-60
2024/03/09 01:49:28;;;;;;;35.38;13.68;;;5.80;99.90;;;;;;5039347;28;20029;-53
2024/03/09 01:51:55;;;;;;;40.07;14.03;;;5.70;99.90;;;;;;5041380;28;20367;-51
2024/03/09 01:54:23;;;;;;;32.25;13.05;;;5.70;99.90;;;;;;5032270;28;20815;-55
2024/03/09 01:56:51;;;;;;;36.60;13.93;;;5.70;99.90;;;;;;5031658;28;20504;-55
2024/03/09 01:59:17;;;;;;;29.65;13.20;;;5.70;99.90;;;;;;5035888;28;20025;-55
2024/03/09 02:01:45;;;;;;;31.98;13.18;;;5.70;99.90;;;;;;5044266;28;20487;-54
2024/03/09 02:04:11;;;;;;;28.98;12.32;;;5.70;99.90;;;;;;5031624;28;20052;-55
2024/03/09 02:06:37;;;;;;;28.13;12.60;;;5.70;99.90;;;;;;5031746;28;20026;-54
2024/03/09 02:09:12;;;;;;;33.55;13.13;;;5.60;99.90;;;;;;5032497;28;20043;-55
2024/03/09 02:11:42;;;;;;;32.33;14.70;;;5.60;99.90;;;;;;5032129;28;20022;-55
2024/03/09 02:14:09;;;;;;;31.23;12.70;;;5.60;99.90;;;;;;5033842;28;20049;-55
2024/03/09 02:16:35;;;;;;;37.30;13.45;;;5.60;99.90;;;;;;5037675;28;20478;-49
2024/03/09 02:19:01;;;;;;;39.38;14.13;;;5.60;99.90;;;;;;5055159;28;20028;-54
2024/03/09 02:21:28;;;;;;;34.03;14.07;;;5.60;99.90;;;;;;5056193;28;20032;-55
2024/03/09 02:24:13;;;;;;;33.25;12.50;;;5.60;99.90;;;;;;5055924;28;20087;-56
2024/03/09 02:26:40;;;;;;;28.50;11.90;;;5.50;99.90;;;;;;5055916;28;20025;-55
2024/03/09 02:29:06;;;;;;;31.70;12.35;;;5.60;99.90;;;;;;5055808;28;20025;-54
2024/03/09 02:31:32;;;;;;;31.38;13.15;;;5.50;99.90;;;;;;5055851;28;20048;-54
2024/03/09 02:33:58;;;;;;;31.75;13.52;;;5.50;99.90;;;;;;5053333;28;20088;-56
2024/03/09 02:36:28;;;;;;;32.78;13.70;;;5.50;99.90;;;;;;5049507;28;20040;-54
2024/03/09 02:38:55;;;;;;;42.95;14.57;;;5.50;99.90;;;;;;5036087;28;20517;-54
2024/03/09 02:41:24;;;;;;;29.58;12.07;;;5.50;99.90;;;;;;5035630;28;20030;-52
2024/03/09 02:43:50;;;;;;;;;;;5.50;99.90;;;;;;5036013;28;20486;-54
2024/03/09 02:46:16;;;;;;;30.25;11.73;;;5.50;99.90;;;;;;5035559;28;19913;-51
2024/03/09 02:48:46;;;;;;;33.00;12.80;;;5.50;99.90;;;;;;5035363;28;20030;-54
2024/03/09 02:51:12;;;;;;;29.98;11.70;;;5.50;99.90;;;;;;5053676;28;20021;-54
2024/03/09 02:53:42;;;;;;;30.60;13.13;;;5.50;99.90;;;;;;5054647;28;20032;-42
2024/03/09 02:56:15;;;;;;;33.13;13.25;;;5.50;99.90;;;;;;5044582;28;20029;-40
2024/03/09 02:58:41;;;;;;;32.10;13.82;;;5.40;99.90;;;;;;5034103;28;20120;-40
2024/03/09 03:01:08;;;;;;;33.58;13.27;;;5.40;99.90;;;;;;5035573;28;20103;-40
2024/03/09 03:03:51;;;;;;;33.05;13.23;;;5.40;99.90;;;;;;5038866;28;20605;-41
2024/03/09 03:06:20;;;;;;;32.30;12.93;;;5.40;99.90;;;;;;5044020;28;20025;-42
2024/03/09 03:08:53;;;;;;;26.38;11.82;;;5.40;99.90;;;;;;5055120;28;20390;-41
2024/03/09 03:11:21;;;;;;;32.95;13.65;;;5.40;99.90;;;;;;5054241;28;20051;-41
2024/03/09 03:13:48;;;;;;;31.75;12.90;;;5.40;99.90;;;;;;5033201;28;20557;-42
2024/03/09 03:16:28;;;;;;;25.63;11.57;;;5.40;99.90;;;;;;5033795;28;20375;-46
2024/03/09 03:18:58;;;;;;;35.40;12.23;;;5.40;99.90;;;;;;5035033;28;20034;-41
2024/03/09 03:21:25;;;;;;;34.72;13.15;;;5.40;99.90;;;;;;5035079;28;20035;-41
2024/03/09 03:23:54;;;;;;;37.92;13.98;;;5.40;99.90;;;;;;5034952;28;20470;-57
2024/03/09 03:26:21;;;;;;;24.27;12.25;;;5.40;99.90;;;;;;5033185;28;20021;-44
2024/03/09 03:28:51;;;;;;;32.75;12.38;;;5.40;99.90;;;;;;5035418;28;20516;-42
2024/03/09 03:31:19;;;;;;;34.97;13.73;;;5.40;99.90;;;;;;5045546;28;20029;-41
2024/03/09 03:33:45;;;;;;;31.73;12.13;;;5.40;99.90;;;;;;5054016;28;20041;-43
2024/03/09 03:36:15;;;;;;;35.20;12.90;;;5.40;99.90;;;;;;5053874;28;20519;-43
2024/03/09 03:38:44;;;;;;;34.05;13.52;;;5.40;99.90;;;;;;5054543;28;20508;-40
2024/03/09 03:41:10;;;;;;;28.67;12.40;;;5.40;99.90;;;;;;5054450;28;20025;-41
2024/03/09 03:43:37;;;;;;;30.90;13.15;;;5.40;99.90;;;;;;5053958;28;20499;-40
2024/03/09 03:46:05;;;;;;;30.20;12.73;;;5.40;99.90;;;;;;5054096;28;20058;-40
2024/03/09 03:48:31;;;;;;;;;;;5.40;99.90;;;;;;5039571;28;20470;-40
2024/03/09 03:50:57;;;;;;;32.22;12.40;;;5.50;99.90;;;;;;5051917;28;19954;-41
2024/03/09 03:53:24;;;;;;;27.77;11.57;;;5.50;99.90;;;;;;5035360;28;20112;-42
2024/03/09 03:55:50;;;;;;;30.65;12.48;;;5.50;99.90;;;;;;5039735;28;20040;-42
2024/03/09 03:58:17;;;;;;;29.85;12.18;;;5.40;99.90;;;;;;5054235;28;20421;-42
2024/03/09 04:00:50;;;;;;;29.38;13.55;;;5.50;99.90;;;;;;5041068;28;20065;-42
2024/03/09 04:03:16;;;;;;;30.25;12.13;;;5.50;99.90;;;;;;5034155;28;20105;-44
2024/03/09 04:05:46;;;;;;;28.70;11.75;;;5.50;99.90;;;;;;5040596;28;20056;-39
2024/03/09 04:08:12;;;;;;;28.83;13.38;;;5.50;99.90;;;;;;5053788;28;20108;-40
2024/03/09 04:10:38;;;;;;;34.47;13.73;;;5.60;99.90;;;;;;5053953;28;20113;-38
2024/03/09 04:13:05;;;;;;;30.60;12.82;;;5.60;99.90;;;;;;5045038;28;20037;-40
2024/03/09 04:15:31;;;;;;;33.50;13.82;;;5.60;99.90;;;;;;5033847;28;20021;-40
2024/03/09 04:17:57;;;;;;;33.40;11.93;;;5.70;99.90;;;;;;5034458;28;20032;-40
2024/03/09 04:20:24;;;;;;;38.22;12.23;;;5.70;99.90;;;;;;5034600;28;20056;-43
2024/03/09 04:22:51;;;;;;;36.63;11.48;;;5.60;99.90;;;;;;5053573;28;20029;-40
2024/03/09 04:25:17;;;;;;;30.08;13.02;;;5.70;99.90;;;;;;5052383;28;20485;-47
2024/03/09 04:27:43;;;;;;;35.90;13.43;;;5.60;99.90;;;;;;5034215;28;20254;-41
2024/03/09 04:30:11;;;;;;;30.85;11.38;;;5.60;99.90;;;;;;5033677;28;20100;-45
2024/03/09 04:32:38;;;;;;;30.67;12.68;;;5.60;99.90;;;;;;5034345;28;20505;-39
2024/03/09 04:35:08;;;;;;;29.77;11.40;;;5.60;99.90;;;;;;5036757;28;20037;-40
2024/03/09 04:37:34;;;;;;;33.38;12.35;;;5.60;99.90;;;;;;5034970;28;20490;-41
2024/03/09 04:40:01;;;;;;;31.30;12.50;;;5.60;99.90;;;;;;5033698;28;20490;-45
2024/03/09 04:42:28;;;;;;;29.15;12.40;;;5.50;99.90;;;;;;5051131;28;20017;-52
2024/03/09 04:44:54;;;;;;;33.33;14.10;;;5.50;99.90;;;;;;5053255;28;20033;-40
2024/03/09 04:47:20;;;;;;;28.23;12.93;;;5.50;99.90;;;;;;5050367;28;20326;-42
2024/03/09 04:49:49;;;;;;;40.08;12.23;;;5.50;99.90;;;;;;5043044;28;20076;-42
2024/03/09 04:52:15;;;;;;;29.85;12.73;;;5.50;99.90;;;;;;5033648;28;20505;-41
2024/03/09 04:54:43;;;;;;;29.05;12.80;;;5.50;99.90;;;;;;5033398;28;20160;-44
2024/03/09 04:57:24;;;;;;;27.38;12.35;;;5.50;99.90;;;;;;5033154;28;20038;-40
2024/03/09 04:59:52;;;;;;;31.95;12.65;;;5.50;99.90;;;;;;5033064;28;20037;-41
2024/03/09 05:02:19;;;;;;;28.50;13.27;;;5.50;99.90;;;;;;5033180;28;20378;-57
2024/03/09 05:04:44;;;;;;;30.33;12.88;;;5.50;99.90;;;;;;5033083;28;20029;-53
2024/03/09 05:07:10;;;;;;;28.80;13.70;;;5.50;99.90;;;;;;5046716;28;20096;-54
2024/03/09 05:09:40;;;;;;;27.20;11.38;;;5.50;99.90;;;;;;5044611;28;20452;-55
2024/03/09 05:12:06;;;;;;;29.50;12.90;;;5.50;99.90;;;;;;5032535;28;20028;-54
2024/03/09 05:14:32;;;;;;;30.30;12.32;;;5.50;99.90;;;;;;5032960;28;20108;-40
2024/03/09 05:16:58;;;;;;;27.92;12.25;;;5.50;99.90;;;;;;5032824;28;20121;-44
2024/03/09 05:19:24;;;;;;;28.30;12.43;;;5.60;99.90;;;;;;5032575;28;20044;-40
2024/03/09 05:21:51;;;;;;;27.75;12.55;;;5.50;99.90;;;;;;5046640;28;20025;-41
2024/03/09 05:24:17;;;;;;;31.38;12.93;;;5.50;99.90;;;;;;5053054;28;20056;-42
2024/03/09 05:26:43;;;;;;;31.58;12.15;;;5.60;99.90;;;;;;5043277;28;20025;-40
2024/03/09 05:29:12;;;;;;;30.00;11.82;;;5.60;99.90;;;;;;5032870;28;20017;-40
2024/03/09 05:31:39;;;;;;;31.83;13.68;;;5.60;99.90;;;;;;5045898;28;20067;-41
2024/03/09 05:34:08;;;;;;;30.60;13.93;;;5.60;99.90;;;;;;5050629;28;20505;-47
2024/03/09 05:36:34;;;;;;;26.25;12.73;;;5.60;99.90;;;;;;5051656;28;20044;-43
2024/03/09 05:39:01;;;;;;;25.27;11.50;;;5.60;99.90;;;;;;5052395;28;20104;-39
2024/03/09 05:41:26;;;;;;;24.75;11.95;;;5.50;99.90;;;;;;5050309;28;20037;-39
2024/03/09 05:43:52;;;;;;;28.58;12.48;;;5.60;99.90;;;;;;5051873;28;20041;-40
2024/03/09 05:46:18;;;;;;;30.75;13.43;;;5.60;99.90;;;;;;5052260;28;20021;-42
2024/03/09 05:48:44;;;;;;;30.00;13.43;;;5.60;99.90;;;;;;5049721;28;20082;-40
2024/03/09 05:51:11;;;;;;;28.58;12.73;;;5.60;99.90;;;;;;5032276;28;20018;-42
2024/03/09 05:53:38;;;;;;;35.83;13.05;;;5.60;99.90;;;;;;5032196;28;20033;-41
2024/03/09 05:56:05;;;;;;;35.15;13.70;;;5.50;99.90;;;;;;5032225;28;20045;-44
2024/03/09 05:58:32;;;;;;;27.20;12.20;;;5.50;99.90;;;;;;5046374;28;20032;-43
2024/03/09 06:00:58;;;;;;;31.67;12.93;;;5.50;99.90;;;;;;5051508;28;20509;-39
2024/03/09 06:03:25;;;;;;;30.55;13.07;;;5.50;99.90;;;;;;5051793;28;20033;-43
2024/03/09 06:05:54;;;;;;;32.42;13.02;;;5.50;99.90;;;;;;5051451;28;20386;-42
2024/03/09 06:08:21;;;;;;;33.90;13.43;;;5.50;99.90;;;;;;5032151;28;20046;-54
2024/03/09 06:10:49;;;;;;;34.47;13.02;;;5.50;99.90;;;;;;5031811;28;20478;-55
2024/03/09 06:13:19;;;;;;;34.42;12.23;;;5.50;99.90;;;;;;5032051;28;20390;-58
2024/03/09 06:15:47;;;;;;;28.90;11.73;;;5.40;99.90;;;;;;5031893;28;20036;-52
2024/03/09 06:18:16;;;;;;;33.95;13.23;;;5.40;99.90;;;;;;5032623;28;20033;-55
2024/03/09 06:20:48;;;;;;;27.23;11.98;;;5.40;99.90;;;;;;5032025;28;20065;-55
2024/03/09 06:23:14;;;;;;;30.25;12.40;;;5.40;99.90;;;;;;5049361;28;20036;-55
2024/03/09 06:25:40;;;;;;;29.65;11.65;;;5.40;99.90;;;;;;5051847;28;20025;-55
2024/03/09 06:28:14;;;;;;;35.25;11.93;;;5.40;99.90;;;;;;5051847;28;20478;-55
2024/03/09 06:30:41;;;;;;;26.75;12.57;;;5.40;99.90;;;;;;5050929;28;20024;-59
2024/03/09 06:33:07;;;;;;;32.72;13.10;;;5.50;99.90;;;;;;5051557;28;20032;-54
2024/03/09 06:35:33;;;;;;;34.65;12.52;;;5.50;99.90;;;;;;5035581;28;20041;-55
2024/03/09 06:38:00;;;;;;;32.78;12.93;;;5.50;99.90;;;;;;5045426;28;20025;-56
2024/03/09 06:40:27;;;;;;;31.80;14.05;;;5.50;99.90;;;;;;5048327;28;20484;-55
2024/03/09 06:43:03;;;;;;;32.47;13.20;;;5.50;99.90;;;;;;5031768;28;20056;-55
2024/03/09 06:45:29;;;;;;;30.67;13.27;;;5.50;99.90;;;;;;5032092;28;20482;-55
2024/03/09 06:48:15;;;;;;;30.23;13.18;;;5.50;99.90;;;;;;5031782;28;20034;-54
2024/03/09 06:50:44;;;;;;;29.20;11.95;;;5.60;99.90;;;;;;5046736;28;20044;-55
2024/03/09 06:53:10;;;;;;;27.13;11.75;;;5.70;99.90;;;;;;5051708;28;20108;-55
2024/03/09 06:55:59;;;;;;;27.45;11.77;;;5.70;99.90;;;;;;5047532;28;20084;-55
2024/03/09 06:58:25;;;;;;;28.95;12.60;;;5.80;99.90;;;;;;5031885;28;20478;-54
2024/03/09 07:00:52;;;;;;;30.23;13.23;;;5.80;99.90;;;;;;5034007;28;20026;-54
2024/03/09 07:03:17;;;;;;;26.23;11.50;;;5.80;99.90;;;;;;5035137;28;20029;-55
2024/03/09 07:05:43;;;;;;;26.13;11.02;;;5.90;99.90;;;;;;5045011;28;20425;-52
2024/03/09 07:08:15;;;;;;;31.48;12.75;;;5.90;99.90;;;;;;5034397;28;20034;-55
2024/03/09 07:10:41;;;;;;;29.17;12.15;;;5.90;99.90;;;;;;5037651;28;20113;-60
2024/03/09 07:13:09;;;;;;;26.17;11.90;;;5.90;99.90;;;;;;5054983;28;20541;-54
2024/03/09 07:15:36;;;;;;;27.40;11.60;;;6.00;99.90;;;;;;5045437;28;20033;-55
2024/03/09 07:18:03;;;;;;;27.05;12.30;;;6.10;99.90;;;;;;5035306;28;20555;-56
2024/03/09 07:20:32;;;;;;;30.60;11.80;;;6.10;99.90;;;;;;5035150;28;20049;-57
2024/03/09 07:22:57;;;;;;;25.85;11.32;;;6.10;99.90;;;;;;5035067;28;20095;-54
2024/03/09 07:25:25;;;;;;;28.52;11.68;;;6.20;99.90;;;;;;5040850;28;20037;-55
2024/03/09 07:27:52;;;;;;;27.73;11.88;;;6.30;99.90;;;;;;5052321;28;20469;-54
2024/03/09 07:30:18;;;;;;;25.63;11.00;;;6.30;99.90;;;;;;5054421;28;20479;-49
2024/03/09 07:32:48;;;;;;;24.63;10.07;;;6.40;99.90;;;;;;5034879;28;20022;-55
2024/03/09 07:35:14;;;;;;;24.80;10.68;;;6.50;99.90;;;;;;5033271;28;20518;-55
2024/03/09 07:37:59;;;;;;;27.45;11.80;;;6.50;99.90;;;;;;5036716;28;20040;-55
2024/03/09 07:40:25;;;;;;;30.10;12.32;;;6.70;99.90;;;;;;5033485;28;20063;-55
2024/03/09 07:42:55;;;;;;;26.15;10.32;;;6.70;99.90;;;;;;5044150;28;20040;-54
2024/03/09 07:45:22;;;;;;;33.05;12.52;;;6.80;99.90;;;;;;5048109;28;20025;-54
2024/03/09 07:47:49;;;;;;;28.67;11.38;;;6.90;99.90;;;;;;5039693;28;20018;-54
2024/03/09 07:50:17;;;;;;;28.25;11.88;;;6.90;99.90;;;;;;5046956;28;20029;-53
2024/03/09 07:52:47;;;;;;;23.85;10.43;;;6.90;99.90;;;;;;5034370;28;20457;-55
2024/03/09 07:55:17;;;;;;;22.63;10.23;;;6.90;99.90;;;;;;5035957;28;20367;-55
2024/03/09 07:57:46;;;;;;;31.77;11.20;;;6.90;99.90;;;;;;5054406;28;20021;-55
2024/03/09 08:00:17;;;;;;;24.17;10.07;;;7.00;99.90;;;;;;5053570;28;20497;-54
2024/03/09 08:02:49;;;;;;;26.20;11.70;;;7.00;99.90;;;;;;5050279;28;20025;-54
2024/03/09 08:05:20;;;;;;;25.65;10.57;;;7.10;99.90;;;;;;5034175;28;20127;-55
2024/03/09 08:07:47;;;;;;;25.27;11.15;;;7.10;99.90;;;;;;5034114;28;20486;-53
2024/03/09 08:10:14;;;;;;;24.10;11.25;;;7.10;99.90;;;;;;5048660;28;20029;-55
2024/03/09 08:12:40;;;;;;;28.15;10.43;;;7.10;99.90;;;;;;5047111;28;20100;-54
2024/03/09 08:15:06;;;;;;;19.38;9.50;;;7.10;99.90;;;;;;5034227;28;20386;-54
2024/03/09 08:17:32;;;;;;;24.63;11.05;;;7.10;99.90;;;;;;5034421;28;20102;-56
2024/03/09 08:20:03;;;;;;;26.48;9.93;;;7.00;99.90;;;;;;5033794;28;20120;-53
2024/03/09 08:22:28;;;;;;;27.67;10.90;;;7.10;99.90;;;;;;5034069;28;20524;-54
2024/03/09 08:24:54;;;;;;;23.55;10.25;;;7.10;99.90;;;;;;5049344;28;20049;-53
2024/03/09 08:27:20;;;;;;;21.70;9.50;;;7.30;99.90;;;;;;5053549;28;20071;-52
2024/03/09 08:29:45;;;;;;;22.23;9.80;;;7.30;99.90;;;;;;5047097;28;20033;-53
2024/03/09 08:32:11;;;;;;;21.95;9.75;;;7.40;99.90;;;;;;5033515;28;20366;-55
2024/03/09 08:34:37;;;;;;;23.90;9.52;;;7.50;99.90;;;;;;5033836;28;20076;-57
2024/03/09 08:37:08;;;;;;;22.13;9.73;;;7.80;99.90;;;;;;5033731;28;20048;-56
2024/03/09 08:39:37;;;;;;;25.45;10.88;;;8.10;99.90;;;;;;5039590;28;20517;-56
2024/03/09 08:42:06;;;;;;;19.10;9.43;;;8.40;99.90;;;;;;5053383;28;20036;-54
2024/03/09 08:44:34;;;;;;;21.63;8.63;;;8.60;99.90;;;;;;5053138;28;20029;-46
2024/03/09 08:47:00;;;;;;;23.92;10.30;;;8.70;99.90;;;;;;5052708;28;20478;-41
2024/03/09 08:49:25;;;;;;;24.27;10.00;;;8.70;99.90;;;;;;5045704;28;20025;-45
2024/03/09 08:51:52;;;;;;;24.30;9.85;;;8.90;99.90;;;;;;5033732;28;20040;-40
2024/03/09 08:54:18;;;;;;;23.73;9.23;;;8.90;99.90;;;;;;5033192;28;20038;-43
2024/03/09 08:56:47;;;;;;;22.88;9.85;;;9.00;99.90;;;;;;5033209;28;20037;-41
2024/03/09 08:59:13;;;;;;;21.40;9.52;;;9.10;99.90;;;;;;5032936;28;20026;-44
2024/03/09 09:01:38;;;;;;;20.25;9.35;;;9.10;99.90;;;;;;5033228;28;20044;-41
2024/03/09 09:04:04;;;;;;;25.13;9.63;;;9.10;99.90;;;;;;5041822;28;20025;-48
2024/03/09 09:06:33;;;;;;;24.85;10.18;;;9.10;99.90;;;;;;5052880;28;20039;-43
2024/03/09 09:09:00;;;;;;;22.15;9.27;;;9.10;99.90;;;;;;5052018;28;20482;-42
2024/03/09 09:11:28;;;;;;;21.63;9.85;;;9.20;99.90;;;;;;5052730;28;20509;-43
2024/03/09 09:13:54;;;;;;;17.63;8.75;;;9.30;99.90;;;;;;5040378;28;20057;-41
2024/03/09 09:16:20;;;;;;;20.42;9.75;;;9.50;99.90;;;;;;5047792;28;20033;-41
2024/03/09 09:18:45;;;;;;;25.50;10.10;;;9.60;99.90;;;;;;5045753;28;20053;-45
2024/03/09 09:21:11;;;;;;;19.65;8.68;;;9.70;99.90;;;;;;5048980;28;20100;-42
2024/03/09 09:23:37;;;;;;;21.80;9.50;;;9.90;99.90;;;;;;5047131;28;20053;-42
2024/03/09 09:26:03;;;;;;;17.10;9.15;;;9.80;99.90;;;;;;5032540;28;20022;-44
2024/03/09 09:28:29;;;;;;;18.75;9.30;;;9.80;99.90;;;;;;5032459;28;20112;-40
2024/03/09 09:30:54;;;;;;;21.83;8.63;;;9.90;99.90;;;;;;5046487;28;20024;-41
2024/03/09 09:33:21;;;;;;;19.88;8.70;;;10.10;99.90;;;;;;5037952;28;20029;-44
2024/03/09 09:35:47;;;;;;;22.05;10.30;;;10.10;99.90;;;;;;5041122;28;20040;-41
2024/03/09 09:38:17;;;;;;;21.90;9.13;;;10.00;99.90;;;;;;5048135;28;20086;-42
2024/03/09 09:40:46;;;;;;;26.73;10.27;;;10.00;99.90;;;;;;5032655;28;20041;-53
2024/03/09 09:43:12;;;;;;;21.25;9.05;;;10.00;99.90;;;;;;5032277;28;20052;-55
2024/03/09 09:45:44;;;;;;;23.67;10.27;;;10.10;99.90;;;;;;5048384;28;20052;-54
2024/03/09 09:48:14;;;;;;;16.65;9.23;;;10.00;99.90;;;;;;5052188;28;20021;-55
2024/03/09 09:50:41;;;;;;;20.27;9.98;;;9.90;99.90;;;;;;5046620;28;20017;-55
2024/03/09 09:53:10;;;;;;;24.23;10.23;;;9.80;99.90;;;;;;5033145;28;20493;-53
2024/03/09 09:55:36;;;;;;;24.55;10.20;;;9.80;99.90;;;;;;5032287;28;20029;-54
2024/03/09 09:58:02;;;;;;;19.45;9.60;;;9.80;99.90;;;;;;5032887;28;20036;-55
2024/03/09 10:00:28;;;;;;;22.23;9.90;;;10.00;99.90;;;;;;5035045;28;20022;-57
2024/03/09 10:03:00;;;;;;;17.65;9.30;;;10.20;99.90;;;;;;5032102;28;20029;-54
2024/03/09 10:05:36;;;;;;;21.15;9.52;;;10.30;99.90;;;;;;5035561;28;20182;-53
2024/03/09 10:08:10;;;;;;;16.38;8.75;;;10.30;99.90;;;;;;5034883;28;20025;-56
2024/03/09 10:10:43;;;;;;;21.45;9.85;;;10.40;99.90;;;;;;5052079;28;20029;-54
2024/03/09 10:13:12;;;;;;;17.73;9.40;;;10.50;99.90;;;;;;5052000;28;20452;-54
2024/03/09 10:15:43;;;;;;;16.90;8.60;;;10.60;99.90;;;;;;5038085;28;20034;-55
2024/03/09 10:18:10;;;;;;;17.92;9.02;;;10.80;99.90;;;;;;5035047;28;20388;-52
2024/03/09 10:20:37;;;;;;;17.42;8.02;;;10.90;99.90;;;;;;5036592;28;20044;-54
2024/03/09 10:23:04;;;;;;;18.45;9.23;;;11.00;99.90;;;;;;5030828;28;20516;-55
2024/03/09 10:25:37;;;;;;;18.90;8.32;;;11.20;99.90;;;;;;5046826;28;20025;-55
2024/03/09 10:28:05;;;;;;;18.80;8.23;;;11.40;99.90;;;;;;5051847;28;20032;-51
2024/03/09 10:30:31;;;;;;;17.40;8.25;;;11.50;99.90;;;;;;5051825;28;20071;-39
2024/03/09 10:33:00;;;;;;;14.30;7.53;;;11.70;99.90;;;;;;5035736;28;20029;-40
2024/03/09 10:35:26;;;;;;;15.27;8.00;;;11.80;99.90;;;;;;5045904;28;20084;-42
2024/03/09 10:37:55;;;;;;;18.02;8.55;;;11.90;99.90;;;;;;5054670;28;20052;-42
2024/03/09 10:40:23;;;;;;;20.77;9.57;;;12.00;99.90;;;;;;5054891;28;20037;-40
2024/03/09 10:42:50;;;;;;;15.25;9.07;;;12.30;99.90;;;;;;5050358;28;20482;-40
2024/03/09 10:45:29;;;;;;;16.92;8.48;;;12.40;99.90;;;;;;5042457;28;20103;-39
2024/03/09 10:47:56;;;;;;;16.38;8.23;;;12.50;99.90;;;;;;5034561;28;20074;-43
2024/03/09 10:50:29;;;;;;;16.52;8.45;;;12.70;99.90;;;;;;5039508;28;20028;-40
2024/03/09 10:53:04;;;;;;;15.85;8.43;;;12.90;99.90;;;;;;5045455;28;20092;-42
2024/03/09 10:55:43;;;;;;;15.75;8.90;;;13.00;99.90;;;;;;5035305;28;20485;-44
2024/03/09 10:58:15;;;;;;;17.63;8.52;;;13.10;99.90;;;;;;5035352;28;20083;-43
2024/03/09 11:00:49;;;;;;;16.55;8.75;;;13.20;99.90;;;;;;5035378;28;20032;-40
2024/03/09 11:03:21;;;;;;;18.08;9.30;;;13.30;99.90;;;;;;5035191;28;20041;-39
2024/03/09 11:05:48;;;;;;;16.20;8.05;;;13.30;99.90;;;;;;5036112;28;20436;-58
2024/03/09 11:08:15;;;;;;;15.48;7.50;;;13.50;99.90;;;;;;5036162;28;20611;-56
2024/03/09 11:10:43;;;;;;;13.90;7.63;;;13.60;99.90;;;;;;5035099;28;20061;-53
2024/03/09 11:13:10;;;;;;;17.83;9.02;;;13.80;99.90;;;;;;5034967;28;20017;-54
2024/03/09 11:15:37;;;;;;;16.55;8.38;;;14.00;99.90;;;;;;5035220;28;20486;-54
2024/03/09 11:18:10;;;;;;;13.93;7.38;;;13.90;99.90;;;;;;5034954;28;20029;-52
2024/03/09 11:20:59;;;;;;;19.23;8.15;;;13.70;99.90;;;;;;5052343;28;20486;-55
2024/03/09 11:23:26;;;;;;;13.65;8.23;;;13.60;99.90;;;;;;5052409;28;20032;-53
2024/03/09 11:25:54;;;;;;;14.85;8.23;;;13.60;99.90;;;;;;5054681;28;20017;-55
2024/03/09 11:28:46;;;;;;;16.15;8.05;;;13.60;99.90;;;;;;5054622;28;20029;-41
2024/03/09 11:31:14;;;;;;;15.25;8.63;;;13.60;99.90;;;;;;5054465;28;20040;-40
2024/03/09 11:33:50;;;;;;;15.70;8.27;;;13.70;99.90;;;;;;5054399;28;20045;-42
2024/03/09 11:36:41;;;;;;;16.25;7.55;;;13.70;99.90;;;;;;5053603;28;20082;-52
2024/03/09 11:39:08;;;;;;;18.58;8.93;;;13.70;99.90;;;;;;5036286;28;20034;-51
2024/03/09 11:41:38;;;;;;;19.63;8.57;;;13.60;99.90;;;;;;5040289;28;20037;-52
2024/03/09 11:44:05;;;;;;;15.85;8.45;;;13.50;99.90;;;;;;5048332;28;20513;-53
2024/03/09 11:46:34;;;;;;;15.18;8.38;;;13.40;99.90;;;;;;5041000;28;20109;-51
2024/03/09 11:49:03;;;;;;;18.10;8.38;;;13.50;99.90;;;;;;5053116;28;20112;-54
2024/03/09 11:51:33;;;;;;;18.27;7.65;;;13.60;99.90;;;;;;5044521;28;20535;-54
2024/03/09 11:54:03;;;;;;;13.52;8.02;;;13.70;99.90;;;;;;5043135;28;20042;-54
2024/03/09 11:56:36;;;;;;;17.02;9.00;;;13.60;99.90;;;;;;5034077;28;20528;-54
2024/03/09 11:59:06;;;;;;;18.67;8.75;;;13.60;99.90;;;;;;5034058;28;20029;-54
2024/03/09 12:01:35;;;;;;;14.18;7.88;;;13.60;99.90;;;;;;5032853;28;20036;-54
2024/03/09 12:04:02;;;;;;;17.88;8.55;;;13.60;99.90;;;;;;5034053;28;20387;-53
2024/03/09 12:06:28;;;;;;;15.30;9.07;;;13.70;99.90;;;;;;5051263;28;20120;-52
2024/03/09 12:08:55;;;;;;;19.80;9.10;;;13.80;99.90;;;;;;5050420;28;20106;-54
2024/03/09 12:11:32;;;;;;;13.88;8.55;;;13.80;99.90;;;;;;5034154;28;20038;-55
2024/03/09 12:13:58;;;;;;;16.85;8.90;;;13.90;99.90;;;;;;5032669;28;20048;-56
2024/03/09 12:16:29;;;;;;;17.83;8.38;;;14.00;99.90;;;;;;5033834;28;20030;-55
2024/03/09 12:18:58;;;;;;;16.00;9.07;;;13.90;99.90;;;;;;5036201;28;20504;-55
2024/03/09 12:21:25;;;;;;;16.13;8.68;;;13.80;99.90;;;;;;5053675;28;20029;-53
2024/03/09 12:23:54;;;;;;;14.10;8.55;;;13.90;99.90;;;;;;5052499;28;20064;-55
2024/03/09 12:26:23;;;;;;;18.00;7.88;;;13.80;99.90;;;;;;5033826;28;20037;-54
2024/03/09 12:28:49;;;;;;;16.92;7.63;;;13.70;99.90;;;;;;5033671;28;20486;-55
2024/03/09 12:31:16;;;;;;;16.45;7.65;;;13.70;99.90;;;;;;5033624;28;20541;-53
2024/03/09 12:33:44;;;;;;;14.80;8.40;;;13.70;99.90;;;;;;5033097;28;20498;-51
2024/03/09 12:36:11;;;;;;;17.95;8.00;;;13.80;99.90;;;;;;5045801;28;20482;-54
2024/03/09 12:38:37;;;;;;;13.38;7.70;;;13.80;99.90;;;;;;5040828;28;20482;-51
2024/03/09 12:41:07;;;;;;;11.95;7.35;;;13.90;99.90;;;;;;5052454;28;20021;-51
2024/03/09 12:43:39;;;;;;;14.75;7.78;;;14.00;99.90;;;;;;5038327;28;20107;-49